Time;durP1;ratioP1;P1;durP2;ratioP2;P2;SDS_P1;SDS_P2;PMS_P1;PMS_P2;Temp;Humidity;BMP_temperature;BMP_pressure;BME280_temperature;BME280_humidity;BME280_pressure;Samples;Min_cycle;Max_cycle;Signal;HPM_P1;HPM_P2
2022/12/26 00:02:06;;;;;;;8.73;6.95;;;;;;;2.95;100.00;100555.75;1785314;80;21666;-61
2022/12/26 00:04:32;;;;;;;9.23;7.72;;;;;;;2.93;100.00;100554.89;1785226;80;21529;-62
2022/12/26 00:06:59;;;;;;;8.55;7.08;;;;;;;2.95;100.00;100551.00;1785479;80;21607;-62
2022/12/26 00:09:26;;;;;;;9.18;7.20;;;;;;;2.93;100.00;100549.69;1785394;80;22117;-63
2022/12/26 00:11:54;;;;;;;7.90;7.10;;;;;;;2.95;100.00;100545.80;1774074;80;21475;-64
2022/12/26 00:14:21;;;;;;;7.62;6.72;;;;;;;2.97;100.00;100547.97;1778409;80;21394;-62
2022/12/26 00:16:47;;;;;;;7.90;6.95;;;;;;;3.02;100.00;100556.22;1785187;80;21496;-62
2022/12/26 00:19:14;;;;;;;7.45;6.67;;;;;;;2.98;100.00;100551.88;1785264;80;21445;-63
2022/12/26 00:21:40;;;;;;;7.50;6.58;;;;;;;2.99;100.00;100552.30;1785062;80;21714;-64
2022/12/26 00:24:09;;;;;;;7.65;6.85;;;;;;;3.02;100.00;100550.16;1783024;80;21600;-63
2022/12/26 00:26:36;;;;;;;7.40;6.50;;;;;;;3.02;100.00;100552.31;1754027;80;21461;-62
2022/12/26 00:29:03;;;;;;;7.27;6.50;;;;;;;2.99;100.00;100543.20;1778671;80;21486;-64
2022/12/26 00:31:32;;;;;;;7.45;6.67;;;;;;;2.97;100.00;100541.03;1777401;80;21139;-62
2022/12/26 00:33:59;;;;;;;7.62;6.83;;;;;;;3.00;100.00;100538.45;1778706;80;21929;-62
2022/12/26 00:36:29;;;;;;;7.40;6.70;;;;;;;2.99;100.00;100538.45;1778188;80;21529;-61
2022/12/26 00:38:59;;;;;;;7.30;6.60;;;;;;;2.91;100.00;100535.83;1778391;80;20973;-61
2022/12/26 00:41:26;;;;;;;8.45;6.83;;;;;;;2.88;100.00;100549.69;1778282;80;21460;-63
2022/12/26 00:43:52;;;;;;;7.28;6.58;;;;;;;2.90;100.00;100544.06;1778400;80;21398;-61
2022/12/26 00:46:19;;;;;;;6.85;6.15;;;;;;;2.89;100.00;100539.72;1777089;80;21809;-62
2022/12/26 00:48:46;;;;;;;6.75;6.05;;;;;;;2.87;100.00;100547.94;1778203;80;21492;-63
2022/12/26 00:51:13;;;;;;;6.78;5.85;;;;;;;2.85;100.00;100558.77;1778390;80;20918;-61
2022/12/26 00:53:40;;;;;;;6.87;6.17;;;;;;;2.87;100.00;100550.98;1776763;80;21145;-62
2022/12/26 00:56:07;;;;;;;7.00;5.95;;;;;;;2.89;100.00;100557.91;1778258;80;21596;-62
2022/12/26 00:58:34;;;;;;;7.17;6.28;;;;;;;2.88;100.00;100557.89;1778498;80;21521;-63
2022/12/26 01:01:14;;;;;;;7.67;6.72;;;;;;;2.88;100.00;100570.88;1778299;80;21563;-61
2022/12/26 01:03:41;;;;;;;7.08;6.33;;;;;;;2.85;100.00;100561.36;1777433;80;21533;-63
2022/12/26 01:06:08;;;;;;;6.65;6.05;;;;;;;2.87;100.00;100567.42;1778392;80;21594;-63
2022/12/26 01:08:35;;;;;;;7.42;6.30;;;;;;;2.84;100.00;100561.34;1778444;80;21201;-62
2022/12/26 01:11:07;;;;;;;6.67;6.08;;;;;;;2.82;100.00;100565.67;1778219;80;21752;-62
2022/12/26 01:13:34;;;;;;;6.92;6.22;;;;;;;2.80;100.00;100558.31;1747081;80;21213;-62
2022/12/26 01:16:01;;;;;;;7.80;6.17;;;;;;;2.82;100.00;100556.58;1747408;81;21602;-62
2022/12/26 01:18:28;;;;;;;6.92;6.12;;;;;;;2.84;100.00;100550.52;1747247;81;22198;-62
2022/12/26 01:21:07;;;;;;;6.60;6.00;;;;;;;2.88;100.00;100558.78;1747886;80;21599;-62
2022/12/26 01:23:33;;;;;;;9.48;6.92;;;;;;;2.89;100.00;100553.15;1745572;81;21576;-63
2022/12/26 01:26:00;;;;;;;6.25;5.65;;;;;;;2.85;100.00;100541.87;1751756;80;21614;-60
2022/12/26 01:28:27;;;;;;;6.20;5.60;;;;;;;2.76;100.00;100553.97;1752548;81;21453;-61
2022/12/26 01:30:54;;;;;;;6.22;5.25;;;;;;;2.77;100.00;100552.69;1752278;80;21421;-59
2022/12/26 01:33:21;;;;;;;5.97;5.35;;;;;;;2.77;100.00;100547.90;1752643;81;21402;-61
2022/12/26 01:35:51;;;;;;;6.05;5.35;;;;;;;2.81;100.00;100554.86;1752535;80;21809;-60
2022/12/26 01:38:20;;;;;;;7.17;5.80;;;;;;;2.84;100.00;100549.66;1753370;80;20932;-60
2022/12/26 01:40:47;;;;;;;6.22;5.62;;;;;;;2.83;100.00;100550.09;1752510;81;21519;-60
2022/12/26 01:43:16;;;;;;;6.42;5.62;;;;;;;2.82;100.00;100550.95;1752380;81;21469;-60
2022/12/26 01:45:47;;;;;;;6.05;5.42;;;;;;;2.85;100.00;100552.70;1752330;81;21481;-60
2022/12/26 01:48:21;;;;;;;6.60;5.90;;;;;;;2.86;100.00;100554.02;1725593;81;21546;-60
2022/12/26 01:50:55;;;;;;;6.90;5.53;;;;;;;2.88;100.00;100557.89;1752023;81;21592;-60
2022/12/26 01:53:36;;;;;;;5.83;5.33;;;;;;;2.90;100.00;100556.16;1752400;80;20945;-59
2022/12/26 01:56:10;;;;;;;7.30;5.90;;;;;;;2.88;100.00;100554.89;1753357;80;21477;-60
2022/12/26 01:58:41;;;;;;;6.65;6.05;;;;;;;2.88;100.00;100558.78;1752422;81;21570;-60
2022/12/26 02:01:08;;;;;;;7.35;5.97;;;;;;;2.88;100.00;100557.89;1752347;80;21779;-61
2022/12/26 06:15:22;;;;;;;6.75;6.05;;;;;;;-0.49;100.00;100629.47;1844405;76;27229;-60
2022/12/26 06:17:49;;;;;;;7.60;6.80;;;;;;;-0.03;100.00;100644.06;1803151;78;21619;-59
2022/12/26 06:28:43;;;;;;;7.25;6.60;;;;;;;0.60;100.00;100623.42;1797208;78;21615;-58
2022/12/26 06:31:19;;;;;;;7.58;6.87;;;;;;;0.79;100.00;100619.34;1764497;79;21609;-56
2022/12/26 06:35:33;;;;;;;8.50;7.67;;;;;;;0.76;100.00;100603.80;1783827;77;26348;-66
2022/12/26 06:38:00;;;;;;;7.22;6.53;;;;;;;1.04;100.00;100623.13;1740198;80;21430;-66
2022/12/26 06:40:31;;;;;;;7.67;6.87;;;;;;;1.19;100.00;100616.36;1747117;80;21900;-68
2022/12/26 06:42:57;;;;;;;7.42;6.72;;;;;;;1.31;100.00;100612.62;1721756;80;21046;-67
2022/12/26 06:45:24;;;;;;;7.35;6.67;;;;;;;1.39;100.00;100615.28;1739394;80;21466;-66
2022/12/26 06:47:51;;;;;;;7.90;7.10;;;;;;;1.49;100.00;100611.95;1743423;80;21069;-66
2022/12/26 06:50:20;;;;;;;6.87;6.28;;;;;;;1.60;100.00;100606.84;1739253;80;21061;-67
2022/12/26 06:52:46;;;;;;;8.25;7.20;;;;;;;1.69;100.00;100610.81;1740152;80;21806;-66
2022/12/26 06:55:14;;;;;;;7.70;6.90;;;;;;;1.82;100.00;100614.39;1752449;80;21510;-67
2022/12/26 06:57:41;;;;;;;;;;;;;;;1.89;100.00;100613.16;1746551;80;21505;-65
2022/12/26 07:00:13;;;;;;;8.53;6.90;;;;;;;1.86;100.00;100606.63;1727702;80;20409;-65
2022/12/26 07:02:40;;;;;;;9.15;6.92;;;;;;;1.95;100.00;100602.82;1750986;80;21565;-67
2022/12/26 07:05:07;;;;;;;7.45;6.70;;;;;;;1.98;100.00;100593.32;1752864;80;22052;-65
2022/12/26 07:07:34;;;;;;;10.17;8.17;;;;;;;2.02;100.00;100595.11;1745639;80;21025;-65
2022/12/26 07:10:01;;;;;;;;;;;;;;;2.07;100.00;100597.28;1727143;80;22059;-61
2022/12/26 07:12:28;;;;;;;6.42;5.83;;;;;;;2.04;100.00;100586.91;1749488;80;20554;-66
2022/12/26 07:14:55;;;;;;;7.28;6.58;;;;;;;2.06;100.00;100585.19;1744819;80;21567;-66
2022/12/26 07:17:21;;;;;;;7.80;7.00;;;;;;;2.06;100.00;100587.34;1695939;83;21565;-66
2022/12/26 07:19:48;;;;;;;7.42;6.83;;;;;;;2.11;100.00;100576.98;1697268;82;21086;-66
2022/12/26 07:22:15;;;;;;;8.40;7.62;;;;;;;2.16;100.00;100581.78;1679290;82;21586;-66
2022/12/26 07:24:41;;;;;;;8.63;7.78;;;;;;;2.17;100.00;100573.16;1711186;82;21498;-66
2022/12/26 07:27:08;;;;;;;8.53;7.72;;;;;;;2.20;100.00;100577.05;1693862;82;21522;-67
2022/12/26 07:29:35;;;;;;;8.83;7.92;;;;;;;2.26;100.00;100583.59;1688209;83;21915;-66
2022/12/26 07:32:03;;;;;;;8.80;7.90;;;;;;;2.33;100.00;100576.70;1690156;83;21692;-66
2022/12/26 07:34:30;;;;;;;9.00;7.92;;;;;;;2.37;100.00;100579.73;1694252;82;21577;-66
2022/12/26 07:36:56;;;;;;;8.68;7.87;;;;;;;2.41;100.00;100577.62;1686821;81;21505;-66
2022/12/26 07:39:23;;;;;;;7.62;6.90;;;;;;;2.45;100.00;100574.18;1672794;83;21525;-64
2022/12/26 07:41:56;;;;;;;7.40;6.70;;;;;;;2.54;100.00;100565.55;1674731;83;22096;-65
2022/12/26 07:44:25;;;;;;;7.03;6.35;;;;;;;2.56;100.00;100570.31;1673067;83;21601;-66
2022/12/26 07:46:52;;;;;;;6.83;6.17;;;;;;;2.59;100.00;100562.55;1667178;83;21549;-66
2022/12/26 07:49:18;;;;;;;7.20;6.50;;;;;;;2.60;100.00;100566.90;1672587;83;21601;-66
2022/12/26 07:51:46;;;;;;;7.10;6.40;;;;;;;2.64;100.00;100566.05;1681102;83;21579;-65
2022/12/26 07:54:13;;;;;;;6.97;6.25;;;;;;;2.64;100.00;100566.48;1670285;83;21829;-65
2022/12/26 07:56:40;;;;;;;6.60;5.93;;;;;;;2.64;100.00;100568.64;1665511;83;21464;-65
2022/12/26 07:59:14;;;;;;;7.03;6.33;;;;;;;2.67;100.00;100576.42;1732859;80;21589;-65
2022/12/26 08:01:42;;;;;;;6.60;6.00;;;;;;;2.70;100.00;100574.30;1754645;78;23908;-66
2022/12/26 08:04:10;;;;;;;6.08;5.35;;;;;;;2.73;100.00;100572.98;1748687;78;21491;-65
2022/12/26 08:06:37;;;;;;;5.70;5.15;;;;;;;2.76;100.00;100572.16;1741323;80;21527;-65
2022/12/26 08:09:04;;;;;;;5.47;4.97;;;;;;;2.79;100.00;100573.44;1741803;80;21619;-65
2022/12/26 08:11:34;;;;;;;5.67;5.08;;;;;;;2.84;100.00;100574.34;1741819;80;21499;-66
2022/12/26 08:14:00;;;;;;;5.83;5.28;;;;;;;2.84;100.00;100573.03;1747621;80;28479;-66
2022/12/26 08:16:27;;;;;;;6.65;5.92;;;;;;;2.86;100.00;100573.50;1738849;80;21508;-66
2022/12/26 08:18:54;;;;;;;7.15;6.45;;;;;;;2.90;100.00;100580.44;1743678;80;21860;-64
2022/12/26 08:21:20;;;;;;;7.90;6.87;;;;;;;2.91;100.00;100584.75;1744930;80;22192;-65
2022/12/26 08:23:48;;;;;;;7.70;6.87;;;;;;;2.94;100.00;100582.61;1750349;78;21541;-66
2022/12/26 08:26:21;;;;;;;7.22;6.53;;;;;;;2.93;100.00;100582.16;1733957;79;21600;-65
2022/12/26 08:28:44;;;;;;;10.08;7.75;;;;;;;2.90;100.00;100574.34;1741432;80;21580;-64
2022/12/26 08:31:11;;;;;;;8.93;7.45;;;;;;;2.90;100.00;100576.54;1733581;80;21595;-66
2022/12/26 08:33:37;;;;;;;7.78;7.00;;;;;;;2.89;100.00;100583.88;1735271;80;21053;-64
2022/12/26 08:36:06;;;;;;;7.00;6.28;;;;;;;2.89;100.00;100582.58;1736919;80;21496;-65
2022/12/26 08:38:33;;;;;;;7.92;6.85;;;;;;;2.90;100.00;100577.84;1739116;80;21518;-65
2022/12/26 08:41:00;;;;;;;6.50;5.90;;;;;;;2.90;100.00;100575.65;1730648;81;21514;-66
2022/12/26 08:43:27;;;;;;;7.67;6.58;;;;;;;2.97;100.00;100574.81;1733331;80;21833;-63
2022/12/26 08:46:04;;;;;;;7.53;6.75;;;;;;;2.99;100.00;100582.17;1748465;80;21550;-65
2022/12/26 08:48:31;;;;;;;;;;;;;;;3.01;100.00;100577.84;1734811;79;20997;-65
2022/12/26 08:51:07;;;;;;;6.00;5.40;;;;;;;2.97;100.00;100576.55;1737178;80;20424;-64
2022/12/26 08:53:35;;;;;;;6.28;5.35;;;;;;;3.00;100.00;100576.57;1743422;78;21586;-62
2022/12/26 08:56:04;;;;;;;6.15;5.03;;;;;;;3.01;100.00;100580.45;1741245;80;22064;-65
2022/12/26 08:58:32;;;;;;;6.12;5.33;;;;;;;3.05;100.00;100578.32;1723976;80;21148;-64
2022/12/26 09:01:18;;;;;;;5.45;4.95;;;;;;;3.06;100.00;100579.18;1726603;80;21592;-66
2022/12/26 09:03:45;;;;;;;5.75;5.25;;;;;;;3.06;100.00;100569.64;1738809;80;21522;-65
2022/12/26 09:06:13;;;;;;;5.35;4.85;;;;;;;3.07;100.00;100569.20;1732929;80;21606;-65
2022/12/26 09:08:40;;;;;;;5.72;5.08;;;;;;;3.11;100.00;100569.67;1727172;80;21946;-64
2022/12/26 09:11:11;;;;;;;6.10;4.03;;;;;;;3.13;100.00;100569.24;1748612;80;21496;-62
2022/12/26 09:13:38;;;;;;;5.62;4.30;;;;;;;3.13;100.00;100564.05;1739466;80;21436;-62
2022/12/26 09:16:14;;;;;;;4.83;4.42;;;;;;;3.14;100.00;100563.16;1742197;78;21621;-65
2022/12/26 09:18:43;;;;;;;4.67;4.28;;;;;;;3.11;100.00;100557.54;1728846;80;21707;-65
2022/12/26 09:21:10;;;;;;;4.42;4.03;;;;;;;3.15;100.00;100549.77;1720679;80;21486;-63
2022/12/26 09:23:38;;;;;;;5.17;4.67;;;;;;;3.19;100.00;100552.80;1732457;80;21438;-65
2022/12/26 09:26:08;;;;;;;6.45;4.92;;;;;;;3.10;100.00;100545.39;1727655;80;21498;-64
2022/12/26 09:28:35;;;;;;;6.65;5.20;;;;;;;3.09;100.00;100542.37;1724605;81;21472;-64
2022/12/26 09:31:13;;;;;;;5.60;5.10;;;;;;;3.20;100.00;100536.32;1710099;80;21529;-63
2022/12/26 09:33:40;;;;;;;4.92;4.53;;;;;;;3.23;100.00;100541.53;1738664;80;22162;-63
2022/12/26 09:36:10;;;;;;;5.33;4.60;;;;;;;3.24;100.00;100531.55;1734514;80;21528;-63
2022/12/26 09:38:37;;;;;;;5.78;5.12;;;;;;;3.17;100.00;100525.94;1693770;80;21404;-65
2022/12/26 09:41:29;;;;;;;5.42;4.92;;;;;;;3.26;100.00;100515.12;1734305;80;21490;-63
2022/12/26 09:44:13;;;;;;;5.62;5.12;;;;;;;3.29;100.00;100519.00;1742035;80;21527;-63
2022/12/26 09:47:09;;;;;;;5.50;5.00;;;;;;;3.34;100.00;100520.77;1673491;83;21825;-63
2022/12/26 09:49:59;;;;;;;6.00;5.42;;;;;;;3.35;100.00;100515.98;1692952;81;21403;-63
2022/12/26 09:52:51;;;;;;;6.25;5.65;;;;;;;3.38;100.00;100519.89;1682669;83;21534;-63
2022/12/26 09:55:32;;;;;;;6.08;5.22;;;;;;;3.43;100.00;100518.17;1673951;83;21668;-63
2022/12/26 09:58:07;;;;;;;6.42;5.17;;;;;;;3.39;100.00;100514.70;1680456;83;21665;-64
2022/12/26 10:00:40;;;;;;;6.20;5.20;;;;;;;3.38;100.00;100525.09;1678469;83;21747;-65
2022/12/26 10:03:08;;;;;;;6.85;5.28;;;;;;;3.37;100.00;100521.63;1677201;82;21712;-64
2022/12/26 14:52:49;;;;;;;5.17;4.67;;;;;;;-0.64;100.00;100351.98;1793387;78;23189;-66
2022/12/26 14:55:36;;;;;;;;;;;;;;;0.05;100.00;100380.41;1765941;80;21637;-62
2022/12/26 15:01:15;;;;;;;8.40;6.83;;;;;;;0.45;100.00;100369.64;1692696;83;20992;-61
2022/12/26 15:04:12;;;;;;;7.80;7.00;;;;;;;0.58;100.00;100362.43;1694412;83;21596;-64
2022/12/26 15:06:49;;;;;;;;;;;;;;;0.71;100.00;100354.35;1689580;82;21476;-60
2022/12/26 15:09:42;;;;;;;9.05;7.05;;;;;;;0.79;100.00;100352.69;1692489;84;20521;-62
2022/12/26 15:12:32;;;;;;;8.38;6.80;;;;;;;0.88;100.00;100349.31;1696086;84;21780;-63
2022/12/26 15:15:16;;;;;;;8.78;7.00;;;;;;;0.98;100.00;100351.14;1691698;83;21475;-60
2022/12/26 15:18:05;;;;;;;7.72;6.83;;;;;;;1.06;100.00;100344.28;1697475;83;21460;-58
2022/12/26 15:21:00;;;;;;;7.10;6.42;;;;;;;1.14;100.00;100336.56;1697504;82;21575;-61
2022/12/26 15:24:02;;;;;;;7.08;6.37;;;;;;;1.20;100.00;100326.23;1693355;84;21584;-62
2022/12/26 15:26:56;;;;;;;7.22;6.53;;;;;;;1.25;100.00;100320.66;1689953;84;22007;-61
2022/12/26 15:29:50;;;;;;;8.78;6.95;;;;;;;1.30;100.00;100300.83;1675174;84;21588;-62
2022/12/26 15:32:56;;;;;;;7.55;6.75;;;;;;;1.34;100.00;100304.31;1688616;83;20985;-61
2022/12/26 15:35:46;;;;;;;9.58;7.30;;;;;;;1.38;100.00;100291.80;1620239;86;21615;-60
2022/12/26 15:38:21;;;;;;;7.87;6.80;;;;;;;1.41;100.00;100274.95;1621386;86;21513;-62
2022/12/26 15:41:11;;;;;;;8.40;7.45;;;;;;;1.45;100.00;100259.88;1671197;84;21784;-63
2022/12/26 15:44:07;;;;;;;9.15;7.65;;;;;;;1.47;100.00;100251.67;1698013;84;21527;-63
2022/12/26 15:46:45;;;;;;;8.18;7.30;;;;;;;1.52;100.00;100243.47;1627816;86;21600;-62
2022/12/26 15:49:35;;;;;;;9.20;7.85;;;;;;;1.54;100.00;100243.07;1659804;84;21519;-60
2022/12/26 15:52:23;;;;;;;9.60;7.35;;;;;;;1.55;100.00;100254.30;1684665;82;21088;-62
2022/12/26 15:55:07;;;;;;;8.38;7.53;;;;;;;1.59;100.00;100249.55;1702225;82;21879;-63
2022/12/26 15:58:02;;;;;;;8.20;7.35;;;;;;;1.64;100.00;100256.92;1700934;82;21491;-62
2022/12/26 16:00:48;;;;;;;10.30;7.33;;;;;;;1.63;100.00;100256.91;1707232;82;21472;-63
2022/12/26 16:03:35;;;;;;;10.10;7.78;;;;;;;1.65;100.00;100278.08;1716854;82;21427;-63
2022/12/26 16:06:14;;;;;;;10.48;7.62;;;;;;;1.68;100.00;100288.47;1714799;81;21813;-62
2022/12/26 16:09:17;;;;;;;8.95;7.37;;;;;;;1.71;100.00;100294.09;1720580;81;21401;-63
2022/12/26 16:11:56;;;;;;;9.88;8.28;;;;;;;1.77;100.00;100304.91;1711509;82;21497;-61
2022/12/26 16:14:37;;;;;;;8.98;7.05;;;;;;;1.83;100.00;100312.30;1717692;82;20968;-71
2022/12/26 16:17:20;;;;;;;10.98;7.58;;;;;;;1.87;100.00;100289.84;1717054;81;21641;-67
2022/12/26 16:19:50;;;;;;;8.98;7.60;;;;;;;1.91;100.00;100262.60;1719181;82;21469;-68
2022/12/26 16:22:43;;;;;;;8.95;8.05;;;;;;;1.93;100.00;100267.36;1717931;82;21447;-73
2022/12/26 16:25:17;;;;;;;9.38;7.95;;;;;;;1.92;100.00;100270.84;1714487;83;21555;-73
2022/12/26 16:27:44;;;;;;;8.13;7.17;;;;;;;1.94;100.00;100285.97;1710475;81;20993;-68
2022/12/26 16:30:19;;;;;;;7.53;6.42;;;;;;;1.99;100.00;100270.84;1716379;82;21025;-67
2022/12/26 16:32:46;;;;;;;8.50;7.60;;;;;;;2.00;100.00;100283.81;1714424;82;21541;-69
2022/12/26 16:35:28;;;;;;;8.68;7.78;;;;;;;2.02;100.00;100311.06;1715842;82;21869;-60
2022/12/26 16:37:57;;;;;;;8.13;7.30;;;;;;;2.03;100.00;100317.52;1684745;83;21406;-62
2022/12/26 16:40:36;;;;;;;10.80;7.65;;;;;;;2.07;100.00;100310.63;1718302;82;21596;-61
2022/12/26 16:43:20;;;;;;;8.40;7.45;;;;;;;2.07;100.00;100319.30;1715912;82;21848;-63
2022/12/26 16:45:52;;;;;;;7.78;6.92;;;;;;;2.14;100.00;100319.72;1715923;82;21426;-60
2022/12/26 16:48:21;;;;;;;8.25;7.42;;;;;;;2.18;100.00;100319.30;1720242;81;21802;-61
2022/12/26 16:50:55;;;;;;;8.75;7.35;;;;;;;2.22;100.00;100326.22;1717483;81;21572;-63
2022/12/26 16:53:40;;;;;;;9.63;7.75;;;;;;;2.25;100.00;100339.65;1709858;82;21465;-63
2022/12/26 16:56:30;;;;;;;8.65;7.75;;;;;;;2.30;100.00;100341.84;1717301;82;21124;-62
2022/12/26 16:59:07;;;;;;;8.93;7.33;;;;;;;2.36;100.00;100343.58;1716250;81;21560;-61
2022/12/26 17:01:34;;;;;;;9.43;7.42;;;;;;;2.37;100.00;100336.20;1704314;82;23157;-61
2022/12/26 17:04:05;;;;;;;8.65;7.35;;;;;;;2.39;100.00;100327.98;1700311;82;21400;-61
2022/12/26 17:06:35;;;;;;;9.03;7.72;;;;;;;2.44;100.00;100326.27;1706595;82;21381;-62
2022/12/26 17:09:13;;;;;;;7.78;6.67;;;;;;;2.45;100.00;100317.60;1706181;82;21578;-61
2022/12/26 17:11:52;;;;;;;9.05;7.83;;;;;;;2.45;100.00;100310.70;1702036;82;21472;-60
2022/12/26 17:14:31;;;;;;;8.45;7.40;;;;;;;2.43;100.00;100290.78;1702022;82;21955;-61
2022/12/26 17:17:07;;;;;;;10.65;7.47;;;;;;;2.39;100.00;100290.35;1705134;82;21481;-62
2022/12/26 17:19:35;;;;;;;8.98;7.83;;;;;;;2.39;100.00;100282.13;1702217;83;20968;-59
2022/12/26 17:22:23;;;;;;;10.40;8.63;;;;;;;2.41;100.00;100273.05;1705642;82;21159;-60
2022/12/26 17:24:50;;;;;;;11.35;9.13;;;;;;;2.39;100.00;100263.95;1705366;82;23367;-61
2022/12/26 17:27:22;;;;;;;;;;;;;;;2.37;100.00;100273.91;1699652;83;21814;-62
2022/12/26 17:30:01;;;;;;;10.82;7.97;;;;;;;2.33;100.00;100263.52;1703391;82;20414;-63
2022/12/26 17:32:39;;;;;;;10.05;8.45;;;;;;;2.33;100.00;100256.17;1682837;83;21465;-59
2022/12/26 17:35:24;;;;;;;9.30;8.20;;;;;;;2.29;100.00;100247.52;1670855;84;21581;-60
2022/12/26 17:37:56;;;;;;;9.30;7.92;;;;;;;2.29;100.00;100242.77;1706596;82;20949;-59
2022/12/26 17:40:32;;;;;;;11.08;8.63;;;;;;;2.26;100.00;100234.56;1679960;84;21877;-61
2022/12/26 17:43:13;;;;;;;10.60;8.03;;;;;;;2.25;100.00;100226.33;1691552;83;21461;-60
2022/12/26 17:45:41;;;;;;;12.30;7.87;;;;;;;2.25;100.00;100213.36;1705033;82;21501;-61
2022/12/26 17:48:10;;;;;;;9.68;8.23;;;;;;;2.23;100.00;100218.98;1688113;83;21518;-59
2022/12/26 17:50:39;;;;;;;9.73;8.58;;;;;;;2.29;100.00;100218.12;1700981;82;21575;-61
2022/12/26 17:53:30;;;;;;;11.88;9.45;;;;;;;2.27;100.00;100216.81;1659687;84;21624;-59
2022/12/26 17:56:06;;;;;;;11.70;8.68;;;;;;;2.26;100.00;100212.51;1687328;84;21537;-61
2022/12/26 17:58:33;;;;;;;10.63;8.13;;;;;;;2.27;100.00;100214.22;1694225;82;21400;-62
2022/12/26 18:01:01;;;;;;;11.53;9.13;;;;;;;2.29;100.00;100205.14;1666709;83;22456;-60
2022/12/26 18:03:28;;;;;;;10.07;8.47;;;;;;;2.27;100.00;100195.20;1694352;83;21497;-63
2022/12/26 18:05:59;;;;;;;11.10;8.78;;;;;;;2.25;100.00;100183.95;1698383;82;21954;-62
2022/12/26 18:08:38;;;;;;;11.48;9.00;;;;;;;2.25;100.00;100173.14;1692699;83;21564;-62
2022/12/26 18:11:09;;;;;;;12.28;9.28;;;;;;;2.23;100.00;100163.20;1692448;83;21536;-60
2022/12/26 18:13:37;;;;;;;9.90;8.50;;;;;;;2.20;100.00;100161.03;1667877;84;21031;-62
2022/12/26 18:16:05;;;;;;;10.00;8.67;;;;;;;2.18;100.00;100154.54;1711809;82;21643;-61
2022/12/26 22:19:42;;;;;;;6.35;5.75;;;;;;;-0.33;100.00;99850.23;1745928;81;23243;-60
2022/12/26 22:22:09;;;;;;;7.47;6.62;;;;;;;0.54;100.00;99894.45;1723595;82;21493;-60
2022/12/26 22:24:35;;;;;;;9.78;8.10;;;;;;;0.86;100.00;99882.42;1723093;82;21859;-60
2022/12/26 22:27:02;;;;;;;8.23;7.20;;;;;;;1.04;100.00;99874.66;1722842;82;20993;-60
2022/12/26 22:29:29;;;;;;;6.00;5.40;;;;;;;1.21;100.00;99867.32;1723328;82;21509;-60
2022/12/26 22:31:57;;;;;;;7.47;6.15;;;;;;;1.34;100.00;99853.04;1722866;82;21111;-60
2022/12/26 22:34:24;;;;;;;6.58;5.85;;;;;;;1.48;100.00;99851.70;1722935;82;21686;-60
2022/12/26 22:36:54;;;;;;;6.75;6.05;;;;;;;1.55;100.00;99841.75;1720741;82;21960;-60
2022/12/26 22:39:21;;;;;;;6.70;6.00;;;;;;;1.67;100.00;99841.28;1732012;81;21409;-59
2022/12/26 22:41:47;;;;;;;6.12;5.53;;;;;;;1.77;100.00;99830.45;1753586;81;21555;-59
2022/12/26 22:44:14;;;;;;;7.05;6.17;;;;;;;1.85;100.00;99823.52;1733384;81;21453;-59
2022/12/26 22:46:41;;;;;;;6.72;6.03;;;;;;;1.94;100.00;99820.84;1723102;82;21517;-59
2022/12/26 22:49:08;;;;;;;6.10;5.50;;;;;;;1.98;100.00;99810.91;1723078;82;21776;-59
2022/12/26 22:51:35;;;;;;;6.12;5.53;;;;;;;2.02;100.00;99803.55;1723011;81;21552;-58
2022/12/26 22:54:02;;;;;;;6.00;4.93;;;;;;;2.09;100.00;99790.09;1700449;82;21553;-59
2022/12/26 22:56:30;;;;;;;4.87;4.47;;;;;;;2.17;100.00;99793.92;1693758;84;21050;-59
2022/12/26 22:59:01;;;;;;;6.97;4.70;;;;;;;2.21;100.00;99790.02;1641997;84;21594;-63
2022/12/26 23:01:28;;;;;;;4.90;4.35;;;;;;;2.28;100.00;99790.83;1693910;84;21843;-62
2022/12/26 23:03:56;;;;;;;5.23;4.07;;;;;;;2.34;100.00;99781.28;1693905;83;21473;-62
2022/12/26 23:06:28;;;;;;;5.80;5.15;;;;;;;2.41;100.00;99793.80;1693790;83;21462;-62
2022/12/26 23:08:56;;;;;;;4.62;4.20;;;;;;;2.45;100.00;99789.41;1696502;81;21534;-62
2022/12/26 23:11:25;;;;;;;4.70;4.20;;;;;;;2.50;100.00;99785.91;1719810;81;21521;-62
2022/12/26 23:13:53;;;;;;;4.65;4.25;;;;;;;2.53;100.00;99782.45;1722752;82;21910;-61
2022/12/26 23:16:39;;;;;;;5.50;4.60;;;;;;;2.45;100.00;99782.51;1722888;82;26933;-61
2022/12/26 23:22:13;;;;;;;4.45;4.05;;;;;;;2.56;100.00;99781.55;1710104;82;21435;-63
2022/12/26 23:24:40;;;;;;;3.87;3.47;;;;;;;2.57;100.00;99774.20;1709994;83;21474;-62
2022/12/26 23:32:40;;;;;;;3.87;3.58;;;;;;;2.66;100.00;99745.12;1707819;83;21474;-62
2022/12/26 23:35:08;;;;;;;4.85;3.90;;;;;;;2.66;100.00;99736.48;1675289;85;21006;-62
2022/12/26 23:37:36;;;;;;;;;;;;;;;2.66;100.00;99732.59;1677874;85;21570;-62
2022/12/26 23:40:03;;;;;;;3.80;3.50;;;;;;;2.66;100.00;99737.34;1675340;85;21851;-62
2022/12/26 23:42:30;;;;;;;5.95;4.85;;;;;;;2.69;100.00;99736.02;1646109;86;21532;-62
2022/12/26 23:44:57;;;;;;;6.30;5.03;;;;;;;2.70;100.00;99733.83;1646712;86;21478;-62
2022/12/26 23:47:24;;;;;;;4.10;3.75;;;;;;;2.75;100.00;99732.92;1648488;85;21503;-62
2022/12/26 23:49:50;;;;;;;5.17;4.67;;;;;;;2.73;100.00;99724.72;1660095;86;21053;-62
2022/12/26 23:52:17;;;;;;;6.22;5.62;;;;;;;2.75;100.00;99726.02;1659967;85;21883;-62
2022/12/26 23:54:44;;;;;;;6.73;6.03;;;;;;;2.79;100.00;99717.73;1660337;86;20993;-62
2022/12/26 23:57:10;;;;;;;6.03;4.65;;;;;;;2.79;100.00;99725.52;1660260;86;21484;-62
2022/12/26 23:59:37;;;;;;;5.05;4.55;;;;;;;2.76;100.00;99709.55;1660063;86;21533;-62
